createdAt,value
2018-12-14T00:04:48.398Z,96295.00
2018-12-14T00:09:59.174Z,96298.00
2018-12-14T00:15:08.619Z,96289.00
2018-12-14T00:20:11.428Z,96297.00
2018-12-14T00:25:20.262Z,96298.00
2018-12-14T00:30:28.843Z,96300.00
2018-12-14T00:35:37.860Z,96299.00
2018-12-14T00:40:40.731Z,96300.00
2018-12-14T00:45:49.390Z,96298.00
2018-12-14T00:50:58.308Z,96299.00
2018-12-14T00:56:07.035Z,96300.00
2018-12-14T01:01:10.079Z,96300.00
2018-12-14T01:06:18.850Z,96304.00
2018-12-14T01:11:27.811Z,96299.00
2018-12-14T01:16:36.525Z,96298.00
2018-12-14T01:21:39.369Z,96303.00
2018-12-14T01:26:48.270Z,96305.00
2018-12-14T01:31:57.299Z,96303.00
2018-12-14T01:37:06.004Z,96311.00
2018-12-14T01:42:08.827Z,96310.00
2018-12-14T01:47:13.443Z,96309.00
2018-12-14T01:52:16.315Z,96320.00
2018-12-14T01:57:19.702Z,96322.00
2018-12-14T02:02:23.446Z,96320.00
2018-12-14T02:07:26.380Z,96317.00
2018-12-14T02:12:29.262Z,96314.00
2018-12-14T02:17:32.271Z,96305.00
2018-12-14T02:22:36.002Z,96298.00
2018-12-14T02:27:39.822Z,96299.00
2018-12-14T02:32:43.542Z,96292.00
2018-12-14T02:37:52.559Z,96277.00
2018-12-14T02:43:01.470Z,96289.00
2018-12-14T02:48:10.299Z,96282.00
2018-12-14T02:53:19.206Z,96285.00
2018-12-14T02:58:21.991Z,96289.00
2018-12-14T03:03:30.990Z,96286.00
2018-12-14T03:08:39.851Z,96286.00
2018-12-14T03:13:48.582Z,96290.00
2018-12-14T03:18:51.636Z,96291.00
2018-12-14T03:24:00.395Z,96282.00
2018-12-14T03:29:08.969Z,96290.00
2018-12-14T03:34:17.790Z,95891.00
2018-12-14T03:39:20.687Z,96302.00
2018-12-14T03:44:29.416Z,96304.00
2018-12-14T03:49:38.087Z,96303.00
2018-12-14T03:54:46.842Z,96308.00
2018-12-14T03:59:49.733Z,96307.00
2018-12-14T04:04:58.388Z,96314.00
2018-12-14T04:10:07.473Z,96322.00
2018-12-14T04:15:16.451Z,96320.00
2018-12-14T04:20:19.300Z,96317.00
2018-12-14T04:25:28.289Z,96322.00
2018-12-14T04:30:37.097Z,96320.00
2018-12-14T04:35:45.998Z,96323.00
2018-12-14T04:40:50.723Z,96335.00
2018-12-14T04:45:56.738Z,96318.00
2018-12-14T04:51:01.641Z,96337.00
2018-12-14T04:56:05.794Z,96330.00
2018-12-14T05:01:09.639Z,96334.00
2018-12-14T05:06:13.059Z,96335.00
2018-12-14T05:11:19.660Z,96336.00
2018-12-14T05:16:23.978Z,96345.00
2018-12-14T05:21:27.753Z,96352.00
2018-12-14T05:26:34.574Z,96361.00
2018-12-14T05:31:38.103Z,96359.00
2018-12-14T05:36:41.584Z,96366.00
2018-12-14T05:41:45.080Z,96361.00
2018-12-14T05:46:49.022Z,96366.00
2018-12-14T05:51:57.900Z,96373.00
2018-12-14T05:57:04.578Z,96374.00
2018-12-14T06:02:08.115Z,96373.00
2018-12-14T06:07:11.560Z,96386.00
2018-12-14T06:12:20.946Z,96374.00
2018-12-14T06:17:26.927Z,96388.00
2018-12-14T06:22:32.905Z,96392.00
2018-12-14T06:27:36.643Z,96379.00
2018-12-14T06:32:39.546Z,96394.00
2018-12-14T06:37:45.445Z,96401.00
2018-12-14T06:42:48.352Z,96400.00
2018-12-14T06:47:51.358Z,96405.00
2018-12-14T06:53:00.600Z,96402.00
2018-12-14T06:58:04.639Z,96397.00
2018-12-14T07:03:07.583Z,96402.00
2018-12-14T07:08:12.090Z,96396.00
2018-12-14T07:13:15.010Z,96402.00
2018-12-14T07:18:20.999Z,96411.00
2018-12-14T07:23:27.082Z,96409.00
2018-12-14T07:28:29.971Z,96412.00
2018-12-14T07:33:32.957Z,96429.00
2018-12-14T07:38:36.849Z,96426.00
2018-12-14T07:43:39.887Z,96441.00
2018-12-14T07:48:46.909Z,96446.00
2018-12-14T07:53:50.794Z,96445.00
2018-12-14T07:58:54.078Z,96457.00
2018-12-14T08:04:00.054Z,96458.00
2018-12-14T08:09:04.602Z,96461.00
2018-12-14T08:14:11.542Z,96458.00
2018-12-14T08:19:14.414Z,96468.00
2018-12-14T08:24:20.286Z,96475.00
2018-12-14T08:29:24.214Z,96466.00
2018-12-14T08:34:28.166Z,96485.00
2018-12-14T08:39:31.694Z,96476.00
2018-12-14T08:44:34.529Z,96489.00
2018-12-14T08:49:38.244Z,96493.00
2018-12-14T08:54:41.161Z,96505.00
2018-12-14T08:59:44.674Z,96509.00
2018-12-14T09:04:48.230Z,96519.00
2018-12-14T09:09:51.726Z,96510.00
2018-12-14T09:14:57.690Z,96514.00
2018-12-14T09:20:00.598Z,96524.00
2018-12-14T09:25:04.423Z,96517.00
2018-12-14T09:30:09.213Z,96523.00
2018-12-14T09:35:12.692Z,96528.00
2018-12-14T09:40:18.578Z,96524.00
2018-12-14T09:45:22.264Z,96532.00
2018-12-14T09:50:25.682Z,96528.00
2018-12-14T09:55:28.576Z,96499.00
2018-12-14T10:00:32.200Z,96528.00
2018-12-14T10:05:35.714Z,96530.00
2018-12-14T10:10:39.574Z,96538.00
2018-12-14T10:15:42.555Z,96532.00
2018-12-14T10:20:47.151Z,96523.00
2018-12-14T10:25:50.070Z,96524.00
2018-12-14T10:30:54.766Z,96532.00
2018-12-14T10:35:57.716Z,96532.00
2018-12-14T10:41:06.379Z,96530.00
2018-12-14T10:46:15.022Z,96529.00
2018-12-14T10:51:23.711Z,96529.00
2018-12-14T10:56:26.654Z,96538.00
2018-12-14T11:01:40.923Z,96535.00
2018-12-14T11:06:49.658Z,96537.00
2018-12-14T11:11:58.361Z,96537.00
2018-12-14T11:17:01.186Z,96543.00
2018-12-14T11:22:10.258Z,96544.00
2018-12-14T11:27:19.140Z,96540.00
2018-12-14T11:32:27.930Z,96549.00
2018-12-14T11:56:20.075Z,96528.00
2018-12-14T12:01:23.759Z,96527.00
2018-12-14T12:06:33.226Z,96526.00
2018-12-14T12:11:42.152Z,96520.00
2018-12-14T12:16:51.777Z,96523.00
2018-12-14T12:21:56.892Z,96514.00
2018-12-14T12:27:05.902Z,96518.00
2018-12-14T12:32:14.693Z,96517.00
2018-12-14T12:37:23.612Z,96530.00
2018-12-14T12:42:26.495Z,96523.00
2018-12-14T12:47:29.559Z,96525.00
2018-12-14T12:52:36.967Z,96523.00
2018-12-14T12:57:42.441Z,96521.00
2018-12-14T13:02:47.341Z,96516.00
2018-12-14T13:07:56.343Z,96517.00
2018-12-14T13:13:03.390Z,96523.00
2018-12-14T13:18:09.047Z,96529.00
2018-12-14T13:23:14.019Z,96530.00
2018-12-14T13:28:25.742Z,96532.00
2018-12-14T13:33:29.417Z,96530.00
2018-12-14T13:38:35.582Z,96532.00
2018-12-14T13:43:44.439Z,96538.00
2018-12-14T13:48:53.491Z,96540.00
2018-12-14T13:54:02.180Z,96542.00
2018-12-14T13:59:11.852Z,96550.00
2018-12-14T14:04:14.870Z,96559.00
2018-12-14T14:09:24.045Z,96564.00
2018-12-14T14:14:32.886Z,96560.00
2018-12-14T14:19:41.778Z,96555.00
2018-12-14T14:24:44.614Z,96558.00
2018-12-14T14:29:53.530Z,96567.00
2018-12-14T14:35:02.505Z,96575.00
2018-12-14T14:40:11.406Z,96571.00
2018-12-14T14:45:14.287Z,96586.00
2018-12-14T14:50:23.011Z,96591.00
2018-12-14T14:55:31.842Z,96594.00
2018-12-14T15:00:40.720Z,96600.00
2018-12-14T15:05:43.618Z,96599.00
2018-12-14T15:10:52.659Z,96612.00
2018-12-14T15:16:01.574Z,96612.00
2018-12-14T15:21:10.303Z,96610.00
2018-12-14T15:26:13.337Z,96608.00
2018-12-14T15:31:22.135Z,96615.00
2018-12-14T15:36:31.139Z,96621.00
2018-12-14T15:41:39.978Z,96632.00
2018-12-14T15:46:43.422Z,96634.00
2018-12-14T15:51:46.834Z,96615.00
2018-12-14T15:56:50.470Z,96643.00
2018-12-14T16:01:53.966Z,96654.00
2018-12-14T16:06:57.420Z,96649.00
2018-12-14T16:12:00.344Z,96656.00
2018-12-14T16:17:03.513Z,96660.00
2018-12-14T16:22:07.427Z,96673.00
2018-12-14T16:27:10.319Z,96661.00
2018-12-14T16:32:14.005Z,96670.00
2018-12-14T16:37:17.870Z,96669.00
2018-12-14T16:42:20.743Z,96670.00
2018-12-14T16:47:24.474Z,96658.00
2018-12-14T16:52:27.946Z,96674.00
2018-12-14T16:57:35.300Z,96686.00
2018-12-14T17:02:43.299Z,96690.00
2018-12-14T17:07:46.296Z,96697.00
2018-12-14T17:12:52.328Z,96699.00
2018-12-14T17:17:58.398Z,96699.00
2018-12-14T17:23:02.404Z,96698.00
2018-12-14T17:28:05.345Z,96696.00
2018-12-14T17:33:08.518Z,96700.00
2018-12-14T17:38:12.025Z,96718.00
2018-12-14T17:43:17.515Z,96721.00
2018-12-14T17:48:23.541Z,96718.00
2018-12-14T17:53:27.644Z,96725.00
2018-12-14T17:58:33.651Z,96728.00
2018-12-14T18:03:42.515Z,96716.00
2018-12-14T18:08:45.929Z,96731.00
2018-12-14T18:13:49.495Z,96727.00
2018-12-14T18:18:56.514Z,96741.00
2018-12-14T18:24:02.779Z,96733.00
2018-12-14T18:29:05.698Z,96743.00
2018-12-14T18:34:08.603Z,96745.00
2018-12-14T18:39:13.427Z,96740.00
2018-12-14T18:44:16.939Z,96755.00
2018-12-14T18:49:22.801Z,96756.00
2018-12-14T18:54:25.951Z,96756.00
2018-12-14T18:59:29.182Z,96758.00
2018-12-14T19:04:32.390Z,96762.00
2018-12-14T19:09:35.567Z,96766.00
2018-12-14T19:14:40.710Z,96762.00
2018-12-14T19:19:44.451Z,96766.00
2018-12-14T19:24:48.983Z,96779.00
2018-12-14T19:29:55.116Z,96770.00
2018-12-14T19:34:59.512Z,96767.00
2018-12-14T19:40:09.919Z,96783.00
2018-12-14T19:45:18.566Z,96780.00
2018-12-14T19:50:28.770Z,96788.00
2018-12-14T19:55:37.679Z,96802.00
2018-12-14T20:00:40.677Z,96801.00
2018-12-14T20:05:49.724Z,96812.00
2018-12-14T20:10:58.593Z,96817.00
2018-12-14T20:16:12.769Z,96815.00
2018-12-14T20:21:12.517Z,96813.00
2018-12-14T20:26:21.513Z,96823.00
2018-12-14T20:31:30.588Z,96826.00
2018-12-14T20:36:39.625Z,96832.00
2018-12-14T20:41:42.855Z,96850.00
2018-12-14T20:46:47.586Z,96829.00
2018-12-14T20:51:56.598Z,96845.00
2018-12-14T20:57:00.718Z,96851.00
2018-12-14T21:02:06.804Z,96853.00
2018-12-14T21:07:13.589Z,96854.00
2018-12-14T21:12:17.134Z,96853.00
2018-12-14T21:17:20.176Z,96851.00
2018-12-14T21:22:24.983Z,96852.00
2018-12-14T21:27:28.611Z,96856.00
2018-12-14T21:32:36.667Z,96851.00
2018-12-14T21:37:40.710Z,96860.00
2018-12-14T21:42:46.684Z,96863.00
2018-12-14T21:47:55.795Z,96862.00
2018-12-14T21:53:02.630Z,96859.00
2018-12-14T21:58:06.523Z,96860.00
2018-12-14T22:03:12.714Z,96871.00
2018-12-14T22:08:15.670Z,96871.00
2018-12-14T22:13:19.962Z,96880.00
2018-12-14T22:18:29.334Z,96881.00
2018-12-14T22:23:32.630Z,96868.00
2018-12-14T22:28:36.835Z,96878.00
2018-12-14T22:33:41.679Z,96866.00
2018-12-14T22:38:48.707Z,96867.00
2018-12-14T22:43:57.758Z,96853.00
2018-12-14T22:49:06.774Z,96859.00
2018-12-14T22:54:15.914Z,96859.00
2018-12-14T22:59:19.651Z,96872.00
2018-12-14T23:04:28.626Z,96840.00
2018-12-14T23:09:37.479Z,96864.00
2018-12-14T23:14:46.444Z,96853.00
2018-12-14T23:19:49.300Z,96858.00
2018-12-14T23:24:58.189Z,96860.00
2018-12-14T23:30:08.383Z,96857.00
2018-12-14T23:35:17.246Z,96851.00
2018-12-14T23:40:20.138Z,96860.00
2018-12-14T23:45:23.198Z,96859.00
2018-12-14T23:50:27.426Z,96859.00
2018-12-14T23:55:36.279Z,96853.00
